Time;durP1;ratioP1;P1;durP2;ratioP2;P2;SDS_P1;SDS_P2;PMS_P1;PMS_P2;Temp;Humidity;BMP_temperature;BMP_pressure;BME280_temperature;BME280_humidity;BME280_pressure;Samples;Min_cycle;Max_cycle;Signal;HPM_P1;HPM_P2
2022/11/17 00:01:19;;;;;;;13.35;7.90;;;12.30;99.90;;;;;;5013290;28;20053;-67
2022/11/17 00:04:25;;;;;;;11.70;5.95;;;12.40;99.90;;;;;;5013239;28;20049;-67
2022/11/17 00:07:30;;;;;;;13.60;5.95;;;12.30;99.90;;;;;;5013457;28;20508;-67
2022/11/17 00:10:34;;;;;;;10.73;5.15;;;12.30;99.90;;;;;;5013550;28;20049;-67
2022/11/17 00:17:10;;;;;;;13.32;5.80;;;12.40;99.90;;;;;;5013099;28;20048;-67
2022/11/17 00:23:59;;;;;;;14.65;7.00;;;12.20;99.90;;;;;;5012741;28;20037;-68
2022/11/17 00:27:05;;;;;;;19.35;10.95;;;12.00;99.90;;;;;;5012898;28;20045;-67
2022/11/17 00:34:03;;;;;;;22.55;11.45;;;11.70;99.90;;;;;;5012292;28;20044;-67
2022/11/17 00:37:11;;;;;;;25.88;13.85;;;11.70;99.90;;;;;;5017837;28;20504;-67
2022/11/17 00:40:34;;;;;;;26.80;13.73;;;11.60;99.90;;;;;;5012818;28;20125;-66
2022/11/17 00:43:37;;;;;;;;;;;11.60;99.90;;;;;;5013039;28;20040;-67
2022/11/17 00:46:41;;;;;;;22.48;14.82;;;11.60;99.90;;;;;;5012806;28;20280;-67
2022/11/17 00:50:04;;;;;;;23.98;13.43;;;11.70;99.90;;;;;;5012551;28;20041;-67
2022/11/17 00:53:08;;;;;;;19.25;13.50;;;11.80;99.90;;;;;;5012449;28;20432;-68
2022/11/17 00:56:12;;;;;;;18.05;10.73;;;11.80;99.90;;;;;;5012795;28;20040;-67
2022/11/17 00:59:17;;;;;;;18.08;9.20;;;11.90;99.90;;;;;;5012512;28;20044;-67
2022/11/17 01:02:21;;;;;;;20.58;11.43;;;12.00;99.90;;;;;;5012531;28;20080;-68
2022/11/17 01:05:44;;;;;;;15.80;9.20;;;12.10;99.90;;;;;;5012058;28;20400;-67
2022/11/17 01:09:20;;;;;;;21.35;10.80;;;12.10;99.90;;;;;;5012614;28;20381;-67
2022/11/17 01:12:24;;;;;;;22.48;8.95;;;12.10;99.90;;;;;;5012592;28;20053;-66
2022/11/17 01:15:28;;;;;;;14.43;9.73;;;12.10;99.90;;;;;;5012038;28;20045;-67
2022/11/17 01:18:33;;;;;;;21.83;10.27;;;12.10;99.90;;;;;;5012070;28;20041;-68
2022/11/17 01:21:37;;;;;;;16.13;8.65;;;12.10;99.90;;;;;;5012148;28;20068;-67
2022/11/17 01:25:00;;;;;;;18.85;8.10;;;12.10;99.90;;;;;;5011686;28;20041;-66
2022/11/17 01:28:22;;;;;;;;;;;12.20;99.90;;;;;;5012527;28;20053;-66
2022/11/17 01:31:33;;;;;;;19.38;10.32;;;12.10;99.90;;;;;;5011376;28;19916;-67
2022/11/17 01:34:37;;;;;;;27.90;12.23;;;12.10;99.90;;;;;;5011476;28;20049;-67
2022/11/17 01:38:00;;;;;;;18.23;10.38;;;11.90;99.90;;;;;;5012114;28;20045;-67
2022/11/17 01:41:12;;;;;;;21.73;11.57;;;11.90;99.90;;;;;;5011674;28;20053;-67
2022/11/17 01:44:57;;;;;;;15.85;11.10;;;11.90;99.90;;;;;;5011448;28;20048;-67
2022/11/17 01:48:04;;;;;;;23.98;13.13;;;11.90;99.90;;;;;;5011621;28;20053;-67
2022/11/17 01:51:10;;;;;;;30.80;12.85;;;11.80;99.90;;;;;;5011899;28;20040;-66
2022/11/17 01:54:19;;;;;;;19.77;11.80;;;11.80;99.90;;;;;;5011187;28;20041;-67
2022/11/17 01:57:48;;;;;;;17.05;11.25;;;11.70;99.90;;;;;;5012158;28;20057;-67
2022/11/17 02:00:53;;;;;;;20.80;11.75;;;11.80;99.90;;;;;;5011563;28;20041;-67
2022/11/17 02:03:58;;;;;;;20.17;11.65;;;11.70;99.90;;;;;;5010896;28;20049;-66
2022/11/17 02:07:12;;;;;;;23.17;12.45;;;11.70;99.90;;;;;;5011406;28;20126;-67
2022/11/17 02:10:17;;;;;;;25.48;13.93;;;11.70;99.90;;;;;;5011524;28;20037;-67
2022/11/17 02:13:21;;;;;;;20.90;13.70;;;11.60;99.90;;;;;;5010291;28;20049;-67
2022/11/17 02:16:27;;;;;;;17.50;11.55;;;11.60;99.90;;;;;;5011428;28;20508;-68
2022/11/17 02:19:36;;;;;;;18.75;9.38;;;11.60;99.90;;;;;;5011583;28;20049;-66
2022/11/17 02:23:05;;;;;;;20.23;11.23;;;11.80;99.90;;;;;;5011122;28;20041;-67
2022/11/17 02:26:30;;;;;;;22.23;11.68;;;11.80;99.90;;;;;;5011407;28;20052;-66
2022/11/17 02:30:21;;;;;;;19.27;12.60;;;11.60;99.90;;;;;;5011471;28;20048;-67
2022/11/17 02:37:29;;;;;;;25.58;11.13;;;11.70;99.90;;;;;;5011427;28;20049;-68
2022/11/17 02:40:58;;;;;;;22.50;8.38;;;11.70;99.90;;;;;;5012173;28;20056;-67
2022/11/17 02:44:05;;;;;;;21.40;8.30;;;11.90;99.90;;;;;;5014920;28;20040;-67
2022/11/17 02:47:16;;;;;;;17.02;8.82;;;12.00;99.90;;;;;;5015020;28;20044;-69
2022/11/17 02:50:24;;;;;;;18.00;6.05;;;12.10;99.90;;;;;;5014756;28;20041;-68
2022/11/17 02:53:52;;;;;;;13.93;5.40;;;12.20;99.90;;;;;;5014710;28;20056;-67
2022/11/17 02:56:56;;;;;;;14.73;4.20;;;12.20;99.90;;;;;;5015201;28;20511;-67
2022/11/17 03:00:08;;;;;;;19.80;7.10;;;12.40;99.90;;;;;;5014697;28;20113;-68
2022/11/17 03:03:51;;;;;;;12.25;5.72;;;12.50;99.90;;;;;;5014662;28;20401;-67
2022/11/17 03:07:27;;;;;;;17.88;4.88;;;12.30;99.90;;;;;;5019694;28;20516;-67
2022/11/17 03:11:05;;;;;;;16.48;4.10;;;12.30;99.90;;;;;;5013851;28;20041;-68
2022/11/17 03:14:26;;;;;;;15.35;3.78;;;12.30;99.90;;;;;;5014296;28;20037;-68
2022/11/17 03:17:51;;;;;;;23.58;3.88;;;12.40;99.90;;;;;;5014523;28;20500;-69
2022/11/17 03:21:17;;;;;;;12.50;3.63;;;12.40;99.90;;;;;;5014552;28;20041;-67
2022/11/17 03:24:32;;;;;;;7.80;3.92;;;12.30;99.90;;;;;;5013979;28;20389;-68
2022/11/17 03:27:41;;;;;;;20.73;3.95;;;12.20;99.90;;;;;;5014147;28;20037;-68
2022/11/17 03:30:47;;;;;;;21.17;3.42;;;12.10;99.90;;;;;;5014420;28;20049;-67
2022/11/17 03:33:52;;;;;;;16.10;2.63;;;12.10;99.90;;;;;;5014047;28;20045;-68
2022/11/17 03:37:01;;;;;;;12.88;2.47;;;12.10;99.90;;;;;;5014395;28;20049;-68
2022/11/17 03:40:16;;;;;;;16.10;2.33;;;12.10;99.90;;;;;;5014190;28;20049;-68
2022/11/17 03:43:39;;;;;;;;;;;12.10;99.90;;;;;;5014013;28;20044;-68
2022/11/17 03:46:48;;;;;;;14.00;2.35;;;12.10;99.90;;;;;;5014087;28;20296;-68
2022/11/17 03:49:57;;;;;;;15.00;2.30;;;12.20;99.90;;;;;;5013974;28;20048;-69
2022/11/17 03:53:20;;;;;;;14.32;2.22;;;12.20;99.90;;;;;;5012154;28;20049;-68
2022/11/17 03:56:39;;;;;;;14.25;2.80;;;12.30;99.90;;;;;;5013544;28;20393;-68
2022/11/17 04:06:44;;;;;;;14.20;2.40;;;12.00;99.90;;;;;;5014025;28;20045;-68
2022/11/17 04:10:07;;;;;;;20.33;2.85;;;12.30;99.90;;;;;;5013674;28;20044;-69
2022/11/17 04:16:52;;;;;;;13.25;2.35;;;12.50;99.90;;;;;;5013373;28;20520;-68
2022/11/17 04:20:14;;;;;;;;;;;12.60;99.90;;;;;;5013229;28;20049;-69
2022/11/17 04:23:19;;;;;;;13.05;2.17;;;12.70;99.90;;;;;;5013046;28;19920;-68
2022/11/17 04:29:46;;;;;;;10.70;2.05;;;12.50;99.90;;;;;;5013190;28;20041;-68
2022/11/17 04:39:43;;;;;;;19.52;6.68;;;12.10;99.90;;;;;;5012827;28;20041;-68
2022/11/17 04:42:48;;;;;;;16.23;9.38;;;11.80;99.90;;;;;;5012897;28;20048;-68
2022/11/17 04:46:14;;;;;;;18.15;8.52;;;11.30;99.90;;;;;;5012914;28;20048;-67
2022/11/17 04:49:19;;;;;;;17.80;9.05;;;11.20;99.90;;;;;;5012925;28;20045;-68
2022/11/17 04:55:46;;;;;;;10.85;7.18;;;11.10;99.90;;;;;;5012871;28;20041;-67
2022/11/17 04:59:09;;;;;;;15.70;5.68;;;11.20;99.90;;;;;;5012407;28;20045;-67
2022/11/17 05:02:13;;;;;;;15.32;5.40;;;11.20;99.90;;;;;;5012672;28;20048;-67
2022/11/17 05:05:18;;;;;;;10.15;5.20;;;11.40;99.90;;;;;;5012246;28;20049;-67
2022/11/17 05:08:22;;;;;;;13.13;4.75;;;11.50;99.90;;;;;;5012423;28;20044;-68
2022/11/17 05:14:51;;;;;;;13.85;3.90;;;11.80;99.90;;;;;;5011704;28;20037;-68
2022/11/17 05:17:55;;;;;;;18.92;2.83;;;11.90;99.90;;;;;;5012078;28;20048;-68
2022/11/17 05:21:08;;;;;;;22.20;3.35;;;12.30;99.90;;;;;;5012387;28;20049;-67
2022/11/17 05:24:13;;;;;;;14.27;3.47;;;12.60;99.90;;;;;;5011636;28;20548;-68
2022/11/17 05:27:18;;;;;;;14.82;3.00;;;12.80;99.90;;;;;;5012230;28;20053;-68
2022/11/17 05:30:22;;;;;;;14.07;2.42;;;12.90;99.90;;;;;;5012025;28;20072;-68
2022/11/17 05:33:44;;;;;;;13.90;1.92;;;13.00;99.90;;;;;;5012047;28;20052;-68
2022/11/17 05:36:49;;;;;;;10.70;2.88;;;13.20;99.90;;;;;;5012232;28;20064;-68
2022/11/17 05:43:16;;;;;;;7.93;4.60;;;12.80;99.90;;;;;;5012076;28;20041;-68
2022/11/17 05:53:25;;;;;;;8.00;3.33;;;12.50;99.90;;;;;;5011753;28;20041;-68
2022/11/17 05:57:10;;;;;;;14.18;4.05;;;12.40;99.90;;;;;;5011622;28;20044;-68
2022/11/17 06:00:14;;;;;;;12.40;3.58;;;12.40;99.90;;;;;;5010791;28;20041;-68
2022/11/17 06:03:28;;;;;;;18.70;4.45;;;12.50;99.90;;;;;;5011859;28;20053;-68
2022/11/17 06:06:58;;;;;;;16.15;3.70;;;12.60;99.90;;;;;;5011739;28;20397;-67
2022/11/17 06:10:02;;;;;;;10.70;3.22;;;12.70;99.90;;;;;;5011897;28;20040;-68
2022/11/17 06:13:27;;;;;;;18.52;3.60;;;12.80;99.90;;;;;;5011858;28;20045;-68
2022/11/17 06:16:36;;;;;;;13.82;3.67;;;12.90;99.90;;;;;;5012550;28;20049;-68
2022/11/17 06:19:44;;;;;;;16.17;3.38;;;12.90;99.90;;;;;;5011735;28;20041;-68
2022/11/17 06:22:49;;;;;;;17.67;3.35;;;12.80;99.90;;;;;;5012087;28;20045;-68
2022/11/17 06:26:13;;;;;;;14.18;3.40;;;12.80;99.90;;;;;;5012042;28;20049;-68
2022/11/17 06:29:35;;;;;;;25.38;4.78;;;12.90;99.90;;;;;;5011468;28;20060;-68
2022/11/17 06:32:42;;;;;;;9.45;3.38;;;13.00;99.90;;;;;;5011056;28;20041;-68
2022/11/17 06:35:48;;;;;;;12.40;3.05;;;13.00;99.90;;;;;;5011127;28;20045;-68
2022/11/17 06:42:14;;;;;;;10.80;4.15;;;13.10;99.90;;;;;;5011450;28;20045;-68
2022/11/17 06:45:19;;;;;;;14.18;5.40;;;13.10;99.90;;;;;;5009831;28;20388;-68
2022/11/17 06:51:45;;;;;;;11.07;3.78;;;13.10;99.90;;;;;;5010849;28;20385;-68
2022/11/17 06:54:49;;;;;;;13.95;3.20;;;13.00;99.90;;;;;;5010805;28;20049;-68
2022/11/17 06:58:05;;;;;;;14.35;3.50;;;13.00;99.90;;;;;;5011042;28;20045;-68
2022/11/17 07:01:12;;;;;;;12.27;2.60;;;13.00;99.90;;;;;;5011272;28;20164;-68
2022/11/17 07:04:17;;;;;;;21.35;4.20;;;13.20;99.90;;;;;;5009425;28;20496;-68
2022/11/17 07:07:23;;;;;;;19.80;4.53;;;13.30;99.90;;;;;;5013895;28;20041;-68
2022/11/17 07:10:28;;;;;;;9.52;4.63;;;13.30;99.90;;;;;;5008886;28;20033;-68
2022/11/17 07:13:34;;;;;;;19.55;9.35;;;13.30;99.90;;;;;;5004246;28;20045;-68
2022/11/17 07:16:41;;;;;;;23.17;9.73;;;13.50;99.90;;;;;;5010437;28;20048;-68
2022/11/17 07:19:45;;;;;;;24.25;6.03;;;13.70;99.90;;;;;;5011231;28;20041;-68
2022/11/17 07:22:49;;;;;;;24.27;10.48;;;13.90;99.90;;;;;;4990246;28;20042;-69
2022/11/17 07:26:13;;;;;;;6.78;5.50;;;14.00;99.90;;;;;;5001291;28;20041;-68
2022/11/17 07:29:55;;;;;;;8.65;6.07;;;13.50;99.90;;;;;;5013820;28;20471;-67
2022/11/17 07:33:00;;;;;;;7.13;6.18;;;13.40;99.90;;;;;;5013732;28;20508;-68
2022/11/17 07:36:23;;;;;;;11.70;6.45;;;13.30;99.90;;;;;;5008946;28;20393;-68
2022/11/17 07:39:27;;;;;;;13.23;6.47;;;13.10;99.90;;;;;;5005391;28;20045;-68
2022/11/17 07:42:32;;;;;;;19.77;9.70;;;12.90;99.90;;;;;;5012776;28;20045;-68
2022/11/17 07:45:36;;;;;;;11.70;8.05;;;12.00;99.90;;;;;;5013393;28;20056;-68
2022/11/17 07:48:42;;;;;;;13.55;7.57;;;11.90;99.90;;;;;;5010328;28;20041;-67
2022/11/17 07:51:46;;;;;;;10.90;6.55;;;11.90;99.90;;;;;;5012968;28;20045;-67
2022/11/17 07:54:50;;;;;;;13.63;7.55;;;12.20;99.90;;;;;;5012988;28;20045;-67
2022/11/17 07:58:00;;;;;;;13.35;5.43;;;12.10;99.90;;;;;;5013320;28;20049;-67
2022/11/17 08:01:06;;;;;;;12.40;5.63;;;12.20;99.90;;;;;;5013085;28;20500;-67
2022/11/17 08:04:10;;;;;;;21.63;5.70;;;12.40;99.90;;;;;;5011985;28;20045;-67
2022/11/17 08:07:14;;;;;;;12.65;4.30;;;12.60;99.90;;;;;;5014097;28;20040;-67
2022/11/17 08:10:19;;;;;;;13.57;3.70;;;12.80;99.90;;;;;;5012365;28;20037;-67
2022/11/17 08:13:24;;;;;;;15.93;4.25;;;13.00;99.90;;;;;;5013405;28;20049;-67
2022/11/17 08:16:46;;;;;;;10.43;6.40;;;13.30;99.90;;;;;;5011557;28;20033;-68
2022/11/17 08:19:50;;;;;;;;;;;13.10;99.90;;;;;;5013359;28;20053;-68
2022/11/17 08:22:55;;;;;;;929.35;56.33;;;11.70;99.90;;;;;;5013632;28;19916;-68
2022/11/17 08:26:01;;;;;;;101.03;14.75;;;11.20;99.90;;;;;;5012948;28;20037;-67
2022/11/17 08:29:24;;;;;;;27.15;15.70;;;11.20;99.90;;;;;;5013242;28;20053;-69
2022/11/17 08:32:29;;;;;;;18.58;13.15;;;11.40;99.90;;;;;;5013156;28;20041;-67
2022/11/17 08:35:33;;;;;;;19.63;13.02;;;11.60;99.90;;;;;;5012794;28;20045;-67
2022/11/17 08:38:37;;;;;;;16.85;10.65;;;11.60;99.90;;;;;;4996499;28;20057;-67
2022/11/17 08:41:40;;;;;;;19.83;10.02;;;11.90;99.90;;;;;;5013148;28;20052;-67
2022/11/17 08:44:44;;;;;;;18.02;10.55;;;12.10;99.90;;;;;;5012254;28;20041;-67
2022/11/17 08:47:49;;;;;;;17.35;8.75;;;12.20;99.90;;;;;;5012661;28;20045;-67
2022/11/17 08:51:13;;;;;;;15.75;7.40;;;12.50;99.90;;;;;;4993270;28;20114;-67
2022/11/17 08:54:18;;;;;;;20.67;7.43;;;12.70;99.90;;;;;;4999937;28;20417;-67
2022/11/17 08:57:23;;;;;;;14.35;7.20;;;12.80;99.90;;;;;;5012382;28;20511;-67
2022/11/17 09:00:47;;;;;;;17.30;6.55;;;13.00;99.90;;;;;;5012221;28;20044;-67
2022/11/17 09:03:50;;;;;;;10.10;3.00;;;13.20;99.90;;;;;;5012138;28;20077;-67
2022/11/17 09:06:54;;;;;;;8.07;2.25;;;13.30;99.90;;;;;;5012019;28;20061;-68
2022/11/17 09:09:59;;;;;;;8.75;2.70;;;13.40;99.90;;;;;;5012414;28;20056;-68
2022/11/17 09:13:22;;;;;;;7.90;1.65;;;13.50;99.90;;;;;;5011882;28;20037;-68
2022/11/17 09:16:27;;;;;;;7.63;1.75;;;13.60;99.90;;;;;;5012324;28;20045;-68
2022/11/17 09:19:31;;;;;;;8.85;2.00;;;13.70;99.90;;;;;;5012002;28;20049;-68
2022/11/17 09:22:37;;;;;;;8.85;2.80;;;13.90;99.90;;;;;;5012310;28;20054;-68
2022/11/17 09:26:08;;;;;;;12.02;2.17;;;14.00;99.90;;;;;;5012017;28;20045;-68
2022/11/17 09:29:12;;;;;;;9.25;2.30;;;14.10;99.90;;;;;;5012220;28;20401;-68
2022/11/17 09:32:35;;;;;;;12.95;2.05;;;14.20;99.90;;;;;;5012533;28;20049;-68
2022/11/17 09:35:39;;;;;;;5.35;1.40;;;14.20;99.90;;;;;;5011790;28;20540;-69
2022/11/17 09:39:20;;;;;;;8.20;2.03;;;14.30;99.90;;;;;;5009542;28;20053;-68
2022/11/17 09:42:24;;;;;;;7.80;2.00;;;14.30;99.90;;;;;;5010187;28;20500;-69
2022/11/17 09:46:06;;;;;;;6.53;1.70;;;14.30;99.90;;;;;;5003355;28;20512;-69
2022/11/17 09:49:27;;;;;;;7.20;2.53;;;14.30;99.90;;;;;;5010803;28;20405;-68
2022/11/17 09:52:36;;;;;;;9.75;4.07;;;14.20;99.90;;;;;;5009902;28;20417;-68
2022/11/17 09:55:55;;;;;;;7.38;4.90;;;14.20;99.90;;;;;;5010969;28;20037;-69
2022/11/17 09:59:04;;;;;;;7.13;2.65;;;14.20;99.90;;;;;;5011355;28;20053;-69
2022/11/17 10:05:51;;;;;;;;;;;14.30;99.90;;;;;;5011554;28;20041;-69
2022/11/17 10:09:27;;;;;;;15.27;4.97;;;14.40;99.90;;;;;;5011278;28;19936;-69
2022/11/17 10:12:37;;;;;;;7.95;2.50;;;14.50;99.90;;;;;;5011858;28;20037;-69
2022/11/17 10:15:47;;;;;;;4.88;2.50;;;14.40;99.90;;;;;;5011234;28;20049;-69
2022/11/17 10:18:51;;;;;;;6.60;2.65;;;14.30;99.90;;;;;;5006915;28;20485;-69
2022/11/17 10:22:02;;;;;;;9.70;6.25;;;14.20;99.90;;;;;;5010975;28;20045;-69
2022/11/17 10:25:37;;;;;;;10.27;3.63;;;14.10;99.90;;;;;;5010826;28;20053;-69
2022/11/17 10:28:41;;;;;;;6.93;4.43;;;14.10;99.90;;;;;;5002185;28;20048;-69
2022/11/17 10:32:13;;;;;;;5.32;3.10;;;14.20;99.90;;;;;;5010961;28;20049;-69
2022/11/17 10:35:25;;;;;;;4.15;2.10;;;14.30;99.90;;;;;;5010406;28;20500;-69
2022/11/17 10:41:53;;;;;;;2.97;1.10;;;14.50;99.90;;;;;;5009697;28;20053;-69
2022/11/17 10:45:00;;;;;;;4.30;2.20;;;14.50;99.90;;;;;;4999068;28;20041;-70
2022/11/17 10:48:09;;;;;;;5.10;2.90;;;14.50;99.90;;;;;;5008088;28;20041;-69
2022/11/17 10:51:18;;;;;;;6.80;2.15;;;14.60;99.90;;;;;;5009717;28;20530;-69
2022/11/17 10:54:22;;;;;;;6.78;1.90;;;14.60;99.90;;;;;;5004053;28;20392;-69
2022/11/17 10:57:27;;;;;;;5.22;1.95;;;14.70;99.90;;;;;;5010893;28;20052;-69
2022/11/17 11:00:35;;;;;;;3.80;1.40;;;14.80;99.90;;;;;;5003860;28;20045;-69
2022/11/17 11:03:48;;;;;;;2.50;1.20;;;14.80;99.90;;;;;;5006660;28;20396;-69
2022/11/17 11:07:33;;;;;;;10.35;6.82;;;15.00;99.90;;;;;;5032764;28;20049;-69
2022/11/17 11:10:37;;;;;;;7.68;4.03;;;14.90;99.90;;;;;;5024211;28;20048;-69
2022/11/17 11:14:04;;;;;;;200.32;14.90;;;14.90;99.90;;;;;;5023777;28;20133;-69
2022/11/17 11:17:29;;;;;;;9.20;5.00;;;14.60;99.90;;;;;;4995077;28;20041;-69
2022/11/17 11:20:40;;;;;;;9.43;5.75;;;14.70;99.90;;;;;;5008178;28;20065;-69
2022/11/17 11:24:09;;;;;;;60.63;7.70;;;14.80;99.90;;;;;;5009378;28;20045;-69
2022/11/17 11:27:40;;;;;;;215.73;15.95;;;14.70;99.90;;;;;;5013790;28;20048;-69
2022/11/17 11:31:10;;;;;;;14.50;9.77;;;14.70;99.90;;;;;;5009717;28;20397;-69
2022/11/17 11:34:52;;;;;;;9.55;4.45;;;14.70;99.90;;;;;;5011687;28;20056;-69
2022/11/17 11:38:11;;;;;;;11.00;4.45;;;14.90;99.90;;;;;;5007826;28;20614;-69
2022/11/17 11:41:49;;;;;;;7.38;3.75;;;15.40;99.90;;;;;;5016645;28;20499;-68
2022/11/17 11:45:03;;;;;;;11.38;3.80;;;16.10;99.90;;;;;;5011030;28;20053;-68
2022/11/17 11:48:16;;;;;;;6.28;3.65;;;16.50;99.90;;;;;;5015393;28;20045;-68
2022/11/17 11:51:30;;;;;;;6.30;3.60;;;16.60;99.90;;;;;;5010145;28;20029;-68
2022/11/17 11:54:49;;;;;;;9.18;3.05;;;16.40;99.90;;;;;;5006537;28;20036;-68
2022/11/17 11:58:21;;;;;;;11.90;2.83;;;16.20;99.90;;;;;;5003977;28;20052;-68
2022/11/17 12:01:27;;;;;;;9.43;2.75;;;16.30;99.90;;;;;;5016882;28;20060;-69
2022/11/17 12:04:45;;;;;;;7.53;2.35;;;16.50;99.90;;;;;;5014365;28;20036;-68
2022/11/17 12:08:12;;;;;;;8.18;2.33;;;16.50;99.90;;;;;;4994286;28;20505;-68
2022/11/17 12:14:40;;;;;;;6.20;2.88;;;16.20;99.90;;;;;;5011192;28;20128;-69
2022/11/17 12:18:02;;;;;;;8.85;2.30;;;16.10;99.90;;;;;;5011318;28;20044;-68
2022/11/17 12:21:22;;;;;;;7.43;2.30;;;16.10;99.90;;;;;;5012806;28;20048;-68
2022/11/17 12:24:45;;;;;;;5.82;2.25;;;16.30;99.90;;;;;;5008616;28;21316;-68
2022/11/17 12:27:52;;;;;;;9.48;2.50;;;16.40;99.90;;;;;;5007781;28;20041;-69
2022/11/17 12:34:41;;;;;;;11.77;2.30;;;16.40;99.90;;;;;;5021100;28;20044;-69
2022/11/17 12:37:45;;;;;;;8.80;2.40;;;16.40;99.90;;;;;;5009338;28;20041;-69
2022/11/17 12:40:51;;;;;;;6.40;2.30;;;16.30;99.90;;;;;;5015541;28;20037;-69
2022/11/17 12:44:36;;;;;;;12.50;1.92;;;16.30;99.90;;;;;;5006827;28;20041;-68
2022/11/17 12:47:59;;;;;;;13.82;2.50;;;16.30;99.90;;;;;;5013697;28;20037;-68
2022/11/17 12:51:06;;;;;;;9.30;1.83;;;16.20;99.90;;;;;;5011446;28;20499;-68
2022/11/17 12:54:19;;;;;;;10.15;2.60;;;16.20;99.90;;;;;;5010891;28;20029;-67
2022/11/17 12:57:30;;;;;;;7.32;2.20;;;16.10;99.90;;;;;;5013338;28;20496;-69
2022/11/17 13:00:55;;;;;;;;;;;16.20;99.90;;;;;;5010718;28;20045;-68
2022/11/17 13:04:11;;;;;;;7.50;1.60;;;16.90;99.90;;;;;;5007528;28;19937;-68
2022/11/17 13:07:38;;;;;;;9.93;1.35;;;17.40;99.90;;;;;;5008557;28;20041;-69
2022/11/17 13:10:42;;;;;;;5.55;1.20;;;19.10;99.90;;;;;;5005553;28;20053;-69
2022/11/17 13:14:05;;;;;;;7.72;1.50;;;21.20;99.90;;;;;;5007599;28;20061;-69
2022/11/17 13:17:10;;;;;;;5.95;1.15;;;21.40;99.90;;;;;;5009103;28;20053;-68
2022/11/17 13:20:36;;;;;;;5.80;1.85;;;20.70;99.90;;;;;;5008234;28;20045;-68
2022/11/17 13:23:44;;;;;;;5.28;1.90;;;19.80;99.90;;;;;;5015599;28;20061;-68
2022/11/17 13:26:57;;;;;;;5.78;2.80;;;20.40;99.90;;;;;;5016068;28;20052;-68
2022/11/17 13:30:29;;;;;;;3.85;1.35;;;21.70;99.90;;;;;;5014726;28;20033;-68
2022/11/17 13:33:33;;;;;;;6.88;2.67;;;23.40;99.90;;;;;;5012665;28;20049;-68
2022/11/17 13:36:52;;;;;;;5.18;1.85;;;22.70;99.90;;;;;;5010057;28;20040;-68
2022/11/17 13:40:35;;;;;;;3.65;1.45;;;22.40;99.90;;;;;;5008260;28;20370;-68
2022/11/17 13:43:39;;;;;;;3.70;1.67;;;21.80;99.90;;;;;;5002245;28;20044;-68
2022/11/17 13:46:44;;;;;;;9.60;1.70;;;20.30;99.90;;;;;;5009184;28;20057;-68
2022/11/17 13:49:47;;;;;;;3.97;1.30;;;19.40;99.90;;;;;;5018834;28;20516;-68
2022/11/17 13:53:07;;;;;;;4.93;1.60;;;18.80;99.90;;;;;;5005988;28;20040;-68
2022/11/17 13:56:22;;;;;;;8.30;2.35;;;18.30;99.90;;;;;;5008437;28;20045;-68
2022/11/17 13:59:29;;;;;;;14.73;2.75;;;17.70;99.90;;;;;;5001195;28;20045;-68
2022/11/17 14:02:33;;;;;;;21.85;3.30;;;17.50;99.90;;;;;;5012682;28;20049;-67
2022/11/17 14:05:55;;;;;;;6.93;1.58;;;17.50;99.90;;;;;;5014108;28;20131;-68
2022/11/17 14:09:04;;;;;;;7.35;1.70;;;18.90;99.90;;;;;;5011862;28;20045;-68
2022/11/17 14:12:11;;;;;;;8.27;1.35;;;20.70;99.90;;;;;;5008770;28;20520;-67
2022/11/17 14:15:29;;;;;;;5.97;1.65;;;21.70;99.90;;;;;;5020573;28;20040;-68
2022/11/17 14:18:36;;;;;;;4.35;1.60;;;20.90;99.90;;;;;;5009472;28;20040;-67
2022/11/17 14:22:22;;;;;;;8.65;1.98;;;20.40;99.90;;;;;;5026484;28;20423;-68
2022/11/17 14:25:27;;;;;;;4.47;1.33;;;20.80;99.90;;;;;;5011205;28;20057;-68
2022/11/17 14:28:31;;;;;;;3.92;1.50;;;20.80;99.90;;;;;;5012960;28;20044;-68
2022/11/17 14:31:37;;;;;;;9.32;1.92;;;20.50;99.90;;;;;;5005026;28;20045;-68
2022/11/17 14:34:42;;;;;;;3.92;1.40;;;20.70;99.90;;;;;;5017428;28;20049;-68
2022/11/17 14:37:46;;;;;;;7.43;1.63;;;21.30;99.90;;;;;;5008116;28;20385;-67
2022/11/17 14:40:52;;;;;;;7.45;1.45;;;20.90;99.90;;;;;;5016713;28;20381;-67
2022/11/17 14:43:57;;;;;;;9.57;1.65;;;20.30;99.90;;;;;;5010829;28;20037;-68
2022/11/17 14:47:01;;;;;;;8.27;1.50;;;20.50;99.90;;;;;;5022106;28;20052;-67
2022/11/17 14:50:06;;;;;;;4.95;1.85;;;20.30;99.90;;;;;;5015818;28;20049;-68
2022/11/17 14:53:10;;;;;;;9.13;1.80;;;20.20;99.90;;;;;;5023786;28;20488;-67
2022/11/17 14:56:17;;;;;;;3.72;1.60;;;19.40;99.90;;;;;;5009590;28;20056;-68
2022/11/17 14:59:22;;;;;;;5.07;1.55;;;18.50;99.90;;;;;;5012099;28;20049;-67
2022/11/17 15:02:26;;;;;;;8.35;2.00;;;17.80;99.90;;;;;;5011068;28;20064;-67
2022/11/17 15:05:30;;;;;;;4.63;1.88;;;17.50;99.90;;;;;;5012111;28;20048;-67
2022/11/17 15:08:35;;;;;;;3.65;1.55;;;17.50;99.90;;;;;;5022932;28;20488;-68
2022/11/17 15:11:40;;;;;;;9.55;2.00;;;17.90;99.90;;;;;;5020848;28;20049;-67
2022/11/17 15:14:48;;;;;;;10.68;1.83;;;18.10;99.90;;;;;;5016801;28;20492;-67
2022/11/17 15:17:53;;;;;;;8.02;2.13;;;18.10;99.90;;;;;;5021889;28;20041;-67
2022/11/17 15:21:23;;;;;;;8.75;1.95;;;17.90;99.90;;;;;;5015725;28;20041;-68
2022/11/17 15:24:27;;;;;;;3.67;1.80;;;17.40;99.90;;;;;;5018268;28;20041;-68
2022/11/17 15:31:17;;;;;;;4.88;1.75;;;16.70;99.90;;;;;;5022621;28;20053;-67
2022/11/17 15:34:21;;;;;;;5.90;1.70;;;16.50;99.90;;;;;;5014580;28;20049;-67
2022/11/17 15:37:43;;;;;;;5.35;1.85;;;16.30;99.90;;;;;;5022493;28;20065;-67
2022/11/17 15:40:53;;;;;;;8.75;2.45;;;16.20;99.90;;;;;;5009904;28;20041;-67
2022/11/17 15:43:57;;;;;;;7.20;2.65;;;16.20;99.90;;;;;;5020694;28;20045;-68
2022/11/17 15:47:01;;;;;;;8.18;2.17;;;16.10;99.90;;;;;;5014298;28;20037;-67
2022/11/17 15:50:08;;;;;;;9.13;2.22;;;16.10;99.90;;;;;;5014372;28;20049;-67
2022/11/17 15:53:12;;;;;;;6.38;2.60;;;16.00;99.90;;;;;;5015276;28;20045;-68
2022/11/17 15:56:36;;;;;;;11.80;2.20;;;16.00;99.90;;;;;;5018583;28;20044;-67
2022/11/17 15:59:41;;;;;;;6.43;2.33;;;15.90;99.90;;;;;;5008253;28;20159;-67
2022/11/17 16:03:05;;;;;;;5.68;2.22;;;15.90;99.90;;;;;;5011693;28;20048;-67
2022/11/17 16:06:10;;;;;;;3.90;1.98;;;15.80;99.90;;;;;;5025180;28;20052;-67
2022/11/17 16:09:14;;;;;;;4.43;1.95;;;15.80;99.90;;;;;;5023291;28;20396;-67
2022/11/17 16:12:18;;;;;;;9.95;2.80;;;15.80;99.90;;;;;;5020578;28;20037;-68
2022/11/17 16:15:22;;;;;;;7.32;2.30;;;15.80;99.90;;;;;;5007596;28;20053;-68
2022/11/17 16:18:27;;;;;;;7.88;2.38;;;15.80;99.90;;;;;;5009556;28;20041;-68
2022/11/17 16:21:31;;;;;;;9.18;2.25;;;15.70;99.90;;;;;;5004298;28;20393;-68
2022/11/17 16:24:37;;;;;;;3.47;1.70;;;15.70;99.90;;;;;;5015286;28;20122;-68
2022/11/17 16:27:41;;;;;;;12.73;2.83;;;15.70;99.90;;;;;;5006061;28;20049;-68
2022/11/17 16:30:46;;;;;;;41.78;24.15;;;15.60;99.90;;;;;;5013051;28;20049;-68
2022/11/17 16:34:14;;;;;;;16.30;3.60;;;15.60;99.90;;;;;;5009375;28;20394;-68
2022/11/17 16:37:18;;;;;;;10.75;2.90;;;15.60;99.90;;;;;;5012880;28;20045;-68
2022/11/17 16:40:22;;;;;;;5.88;2.80;;;15.60;99.90;;;;;;5013170;28;20053;-68
2022/11/17 16:43:27;;;;;;;6.78;3.10;;;15.60;99.90;;;;;;5012557;28;20045;-68
2022/11/17 16:46:31;;;;;;;24.85;8.65;;;15.70;99.90;;;;;;5013061;28;20508;-68
2022/11/17 16:49:36;;;;;;;5.72;2.28;;;15.70;99.90;;;;;;5012668;28;20401;-66
2022/11/17 16:52:40;;;;;;;6.68;1.88;;;15.60;99.90;;;;;;4993346;28;20385;-68
2022/11/17 16:56:04;;;;;;;6.13;1.92;;;15.50;99.90;;;;;;4993044;28;20049;-68
2022/11/17 16:59:12;;;;;;;9.80;3.33;;;15.50;99.90;;;;;;4993218;28;20054;-68
2022/11/17 17:02:34;;;;;;;9.43;3.55;;;15.50;99.90;;;;;;4992901;28;20057;-67
2022/11/17 17:05:39;;;;;;;7.82;2.50;;;15.50;99.90;;;;;;5007582;28;20398;-67
2022/11/17 17:08:44;;;;;;;7.72;2.67;;;15.60;99.90;;;;;;5008323;28;20044;-67
2022/11/17 17:12:08;;;;;;;8.75;2.63;;;15.60;99.90;;;;;;5009307;28;20049;-67
2022/11/17 17:15:32;;;;;;;7.10;2.47;;;15.60;99.90;;;;;;5011849;28;20045;-67
2022/11/17 17:18:36;;;;;;;12.38;3.47;;;15.60;99.90;;;;;;5012670;28;20052;-67
2022/11/17 17:21:42;;;;;;;8.70;4.68;;;15.60;99.90;;;;;;5012391;28;20049;-67
2022/11/17 17:25:05;;;;;;;6.43;2.92;;;15.60;99.90;;;;;;5012004;28;20508;-67
2022/11/17 17:28:10;;;;;;;7.05;2.88;;;15.60;99.90;;;;;;5012292;28;20037;-66
2022/11/17 17:31:16;;;;;;;7.72;3.28;;;15.60;99.90;;;;;;5013018;28;20049;-67
2022/11/17 17:34:20;;;;;;;8.13;2.65;;;15.70;99.90;;;;;;5012323;28;20041;-67
2022/11/17 17:37:45;;;;;;;7.20;2.22;;;15.70;99.90;;;;;;5011402;28;20504;-68
2022/11/17 17:44:17;;;;;;;19.98;11.30;;;15.80;99.90;;;;;;5012156;28;20048;-67
2022/11/17 17:47:22;;;;;;;7.57;4.15;;;15.70;99.90;;;;;;5010442;28;20057;-66
2022/11/17 17:50:25;;;;;;;18.40;11.18;;;15.70;99.90;;;;;;5011816;28;20041;-67
2022/11/17 17:53:30;;;;;;;22.15;15.13;;;15.70;99.90;;;;;;5011245;28;20037;-67